Time;durP1;ratioP1;P1;durP2;ratioP2;P2;SDS_P1;SDS_P2;PMS_P1;PMS_P2;Temp;Humidity;BMP_temperature;BMP_pressure;BME280_temperature;BME280_humidity;BME280_pressure;Samples;Min_cycle;Max_cycle;Signal;HPM_P1;HPM_P2
2022/11/04 00:01:58;;;;;;;2.57;2.37;;;11.70;99.90;11.60;99430.00;;;;4879701;28;88102;-66
2022/11/04 00:04:27;;;;;;;5.67;2.40;;;11.70;99.90;11.60;99433.00;;;;4874206;28;98231;-66
2022/11/04 00:06:54;;;;;;;6.40;2.50;;;11.60;99.90;11.60;99424.00;;;;4875371;28;88660;-65
2022/11/04 00:09:24;;;;;;;2.80;2.03;;;11.60;99.90;11.50;99431.00;;;;4877653;28;88000;-65
2022/11/04 00:14:35;;;;;;;5.13;2.70;;;11.50;99.90;11.40;99421.00;;;;4875909;28;88922;-67
2022/11/04 00:17:20;;;;;;;3.90;2.63;;;11.50;99.90;11.40;99428.00;;;;4878606;28;91053;-66
2022/11/04 00:33:24;;;;;;;5.27;2.97;;;11.20;99.90;11.10;99425.00;;;;4878801;28;87842;-66
2022/11/04 00:33:43;;;;;;;2.77;2.07;;;11.20;99.90;11.00;99425.00;;;;4880958;28;87721;-66
2022/11/04 00:36:09;;;;;;;4.50;3.00;;;11.10;99.90;11.00;99427.00;;;;4877002;28;89021;-66
2022/11/04 00:38:34;;;;;;;5.23;2.47;;;11.00;99.90;10.90;99425.00;;;;4878498;28;117902;-65
2022/11/04 00:41:00;;;;;;;4.67;2.67;;;11.00;99.90;10.90;99418.00;;;;4876593;28;118351;-65
2022/11/04 00:43:25;;;;;;;3.37;2.63;;;11.00;99.90;10.80;99410.00;;;;4879649;28;110534;-66
2022/11/04 00:45:51;;;;;;;5.13;3.10;;;10.90;99.90;10.70;99415.00;;;;4877089;28;102219;-66
2022/11/04 00:48:17;;;;;;;5.97;1.77;;;10.80;99.90;10.70;99412.00;;;;4880045;28;114543;-66
2022/11/04 00:50:42;;;;;;;3.87;2.70;;;10.80;99.90;10.60;99408.00;;;;4876287;28;117844;-66
2022/11/04 00:53:08;;;;;;;3.57;2.50;;;10.70;99.90;10.50;99405.00;;;;4885771;28;87786;-66
2022/11/04 00:55:34;;;;;;;3.77;2.80;;;10.60;99.90;10.40;99405.00;;;;4882408;28;108301;-66
2022/11/04 00:57:59;;;;;;;5.20;3.03;;;10.60;99.90;10.30;99401.00;;;;4876285;28;117317;-66
2022/11/04 01:00:26;;;;;;;5.67;2.63;;;10.50;99.90;10.30;99408.00;;;;4879254;28;87953;-66
2022/11/04 01:02:51;;;;;;;3.27;2.47;;;10.40;99.90;10.20;99408.00;;;;4877384;28;111695;-66
2022/11/04 01:05:17;;;;;;;5.27;3.07;;;10.30;99.90;10.10;99413.00;;;;4876276;28;99705;-65
2022/11/04 01:07:43;;;;;;;4.67;2.97;;;10.20;99.90;10.00;99409.00;;;;4877848;28;117577;-67
2022/11/04 01:10:09;;;;;;;4.33;2.67;;;10.20;99.90;10.00;99410.00;;;;4881078;28;117241;-67
2022/11/04 01:12:34;;;;;;;2.63;2.27;;;10.10;99.90;9.90;99406.00;;;;4878871;28;87760;-67
2022/11/04 01:15:00;;;;;;;5.43;3.13;;;10.00;99.90;9.90;99410.00;;;;4882243;28;109446;-67
2022/11/04 01:17:26;;;;;;;3.83;2.00;;;9.90;99.90;9.80;99411.00;;;;4878086;28;117389;-67
2022/11/04 01:19:51;;;;;;;4.20;2.70;;;9.90;99.90;9.80;99404.00;;;;4877780;28;117943;-67
2022/11/04 01:22:17;;;;;;;5.83;3.07;;;9.80;99.90;9.70;99405.00;;;;4875443;28;110537;-67
2022/11/04 01:24:43;;;;;;;3.30;2.67;;;9.80;99.90;9.70;99400.00;;;;4878214;28;107498;-67
2022/11/04 01:27:08;;;;;;;3.10;2.13;;;9.80;99.90;9.70;99399.00;;;;4876739;28;118183;-67
2022/11/04 01:29:34;;;;;;;3.80;3.03;;;9.70;99.90;9.60;99406.00;;;;4877812;28;117920;-67
2022/11/04 01:32:00;;;;;;;3.83;3.33;;;9.70;99.90;9.60;99400.00;;;;4878667;28;109839;-66
2022/11/04 01:34:25;;;;;;;2.43;2.23;;;9.70;99.90;9.50;99405.00;;;;4876680;28;108047;-67
2022/11/04 01:36:51;;;;;;;3.60;2.67;;;9.60;99.90;9.40;99390.00;;;;4878193;28;117542;-67
2022/11/04 01:39:16;;;;;;;2.53;2.30;;;9.60;99.90;9.40;99385.00;;;;4882337;28;116768;-67
2022/11/04 01:41:42;;;;;;;3.97;2.87;;;9.50;99.90;9.30;99391.00;;;;4879244;28;108968;-67
2022/11/04 01:44:53;;;;;;;3.17;2.53;;;9.50;99.90;9.20;99396.00;;;;4884000;28;87927;-67
2022/11/04 01:47:29;;;;;;;4.70;2.90;;;9.40;99.90;9.20;99393.00;;;;4873219;28;87536;-67
2022/11/04 01:50:14;;;;;;;3.10;2.63;;;9.30;99.90;9.10;99384.00;;;;4868043;28;88587;-67
2022/11/04 01:52:52;;;;;;;9.03;3.27;;;9.30;99.90;9.10;99377.00;;;;4879234;28;100236;-67
2022/11/04 01:55:25;;;;;;;3.03;2.73;;;9.30;99.90;9.10;99380.00;;;;4873557;28;102422;-67
2022/11/04 01:57:55;;;;;;;7.60;3.70;;;9.20;99.90;9.10;99373.00;;;;4879489;28;88911;-67
2022/11/04 02:00:21;;;;;;;4.27;2.93;;;9.30;99.90;9.10;99381.00;;;;4897301;28;105464;-67
2022/11/04 02:03:22;;;;;;;5.40;4.23;;;9.30;99.90;9.10;99374.00;;;;4878251;28;108718;-66
2022/11/04 02:05:48;;;;;;;7.20;5.93;;;9.20;99.90;9.10;99370.00;;;;4882408;28;97801;-67
2022/11/04 02:08:15;;;;;;;11.70;4.87;;;9.20;99.90;9.30;99374.00;;;;4883361;28;114992;-67
2022/11/04 02:10:49;;;;;;;6.57;4.33;;;9.30;99.90;9.40;99378.00;;;;4877347;28;88656;-66
2022/11/04 02:13:15;;;;;;;8.20;4.70;;;9.40;99.90;9.40;99380.00;;;;4881060;28;87287;-66
2022/11/04 02:15:50;;;;;;;9.00;5.27;;;9.50;99.90;9.50;99387.00;;;;4876909;28;109109;-66
2022/11/04 02:19:09;;;;;;;7.13;6.43;;;9.60;99.90;9.70;99365.00;;;;4879255;28;109966;-65
2022/11/04 02:22:37;;;;;;;7.27;6.23;;;9.70;99.90;9.80;99383.00;;;;4870289;28;100856;-66
2022/11/04 02:25:21;;;;;;;9.10;6.13;;;9.80;99.90;10.00;99376.00;;;;4874680;28;90444;-64
2022/11/04 02:28:22;;;;;;;7.97;5.70;;;10.00;99.90;10.00;99394.00;;;;4885213;28;87837;-64
2022/11/04 02:31:36;;;;;;;9.10;5.63;;;10.10;99.90;10.10;99379.00;;;;4873166;28;88220;-65
2022/11/04 02:34:24;;;;;;;10.80;5.63;;;10.20;99.90;10.20;99380.00;;;;4875772;28;110539;-64
2022/11/04 02:37:07;;;;;;;11.10;7.20;;;10.20;99.90;10.30;99383.00;;;;4874756;28;101667;-65
2022/11/04 02:40:08;;;;;;;6.37;5.10;;;10.30;99.90;10.30;99396.00;;;;4879498;28;100969;-66
2022/11/04 02:42:57;;;;;;;8.87;6.73;;;10.30;99.90;10.30;99392.00;;;;4875531;28;87027;-64
2022/11/04 02:45:37;;;;;;;12.03;6.87;;;10.40;99.90;10.40;99396.00;;;;4878778;28;103371;-66
2022/11/04 02:48:11;;;;;;;9.87;6.80;;;10.40;99.90;10.40;99408.00;;;;4885269;28;87979;-66
2022/11/04 02:50:50;;;;;;;8.10;6.20;;;10.50;99.90;10.40;99410.00;;;;4881448;28;88797;-66
2022/11/04 02:53:20;;;;;;;10.07;6.67;;;10.50;99.90;10.50;99407.00;;;;4898958;28;106866;-66
2022/11/04 02:55:51;;;;;;;10.97;6.97;;;10.50;99.90;10.60;99401.00;;;;4887887;28;113925;-66
2022/11/04 02:59:06;;;;;;;10.80;7.57;;;10.60;99.90;10.60;99397.00;;;;4879342;28;88594;-65
2022/11/04 03:01:40;;;;;;;17.33;7.27;;;10.70;99.90;10.70;99400.00;;;;4880079;28;88608;-65
2022/11/04 03:04:14;;;;;;;10.40;6.77;;;10.70;99.90;10.80;99400.00;;;;4879155;28;106773;-66
2022/11/04 03:06:43;;;;;;;11.93;7.33;;;10.80;99.90;10.80;99426.00;;;;4879938;28;87998;-66
2022/11/04 03:09:13;;;;;;;10.27;7.57;;;10.80;99.90;10.90;99421.00;;;;4896588;28;87108;-65
2022/11/04 03:11:43;;;;;;;15.70;8.07;;;11.30;99.90;10.90;99410.00;;;;4893361;28;108827;-65
2022/11/04 03:14:38;;;;;;;8.50;6.17;;;10.90;99.90;10.90;99427.00;;;;4879789;28;111760;-65
2022/11/04 03:17:14;;;;;;;10.40;7.60;;;11.00;99.90;11.00;99414.00;;;;4880115;28;109773;-64
2022/11/04 03:19:55;;;;;;;9.17;7.17;;;11.00;99.90;11.00;99419.00;;;;4883296;28;87703;-66
2022/11/04 03:22:25;;;;;;;9.50;7.10;;;11.10;99.90;11.10;99422.00;;;;4880154;28;102112;-64
2022/11/04 03:24:52;;;;;;;10.93;8.00;;;11.10;99.90;11.10;99409.00;;;;4882407;28;88520;-64
2022/11/04 03:27:34;;;;;;;13.20;6.83;;;11.10;99.90;11.10;99426.00;;;;4884317;28;117553;-65
2022/11/04 03:30:12;;;;;;;10.63;6.50;;;11.10;99.90;11.10;99394.00;;;;4897259;28;87977;-66
2022/11/04 03:33:07;;;;;;;12.37;7.13;;;11.10;99.90;11.10;99416.00;;;;4877382;28;89335;-65
2022/11/04 03:35:33;;;;;;;10.60;6.90;;;11.20;99.90;11.10;99404.00;;;;4875937;28;87580;-65
2022/11/04 03:37:59;;;;;;;10.03;7.23;;;11.20;99.90;11.10;99413.00;;;;4879643;28;116498;-66
2022/11/04 03:40:25;;;;;;;9.63;6.97;;;11.20;99.90;11.10;99410.00;;;;4877457;28;105248;-66
2022/11/04 03:43:09;;;;;;;13.63;7.43;;;11.20;99.90;11.10;99417.00;;;;4877230;28;109497;-64
2022/11/04 03:45:36;;;;;;;11.77;6.83;;;11.20;99.90;11.10;99414.00;;;;4877865;28;93646;-64
2022/11/04 03:48:02;;;;;;;12.37;6.70;;;11.20;99.90;11.10;99407.00;;;;4879439;28;101252;-65
2022/11/04 03:50:31;;;;;;;8.20;6.37;;;11.10;99.90;11.10;99414.00;;;;4881073;28;92664;-65
2022/11/04 03:52:59;;;;;;;12.00;7.03;;;11.20;99.90;11.10;99409.00;;;;4881740;28;101211;-64
2022/11/04 03:55:57;;;;;;;10.73;6.97;;;11.20;99.90;11.10;99401.00;;;;4879131;28;116098;-65
2022/11/04 03:58:44;;;;;;;12.10;7.63;;;11.20;99.90;11.10;99409.00;;;;4882808;28;89484;-66
2022/11/04 04:01:24;;;;;;;13.13;7.63;;;11.20;99.90;11.10;99407.00;;;;4877814;28;94463;-66
2022/11/04 04:04:13;;;;;;;11.13;6.93;;;11.20;99.90;11.10;99401.00;;;;4898514;28;102677;-66
2022/11/04 04:06:42;;;;;;;11.30;7.83;;;11.20;99.90;11.20;99397.00;;;;4876672;28;112086;-66
2022/11/04 04:09:37;;;;;;;13.63;7.83;;;11.20;99.90;11.10;99400.00;;;;4880474;28;98289;-66
2022/11/04 04:12:32;;;;;;;15.70;7.27;;;11.20;99.90;11.10;99398.00;;;;4877581;28;87981;-65
2022/11/04 04:15:11;;;;;;;10.60;7.03;;;11.20;99.90;11.10;99403.00;;;;4882818;28;87924;-65
2022/11/04 04:17:54;;;;;;;12.73;8.03;;;11.20;99.90;11.10;99395.00;;;;4879090;28;111954;-64
2022/11/04 04:20:26;;;;;;;11.90;6.60;;;11.20;99.90;11.20;99386.00;;;;4879529;28;103258;-66
2022/11/04 04:22:59;;;;;;;9.20;6.80;;;11.20;99.90;11.20;99390.00;;;;4879433;28;87964;-65
2022/11/04 04:28:14;;;;;;;14.43;7.73;;;11.20;99.90;11.20;99386.00;;;;4878939;28;87155;-65
2022/11/04 04:30:41;;;;;;;14.40;7.40;;;11.30;99.90;11.20;99392.00;;;;4893357;28;110659;-65
2022/11/04 04:33:15;;;;;;;10.97;7.40;;;11.30;99.90;11.20;99403.00;;;;4892340;28;106870;-66
2022/11/04 04:35:52;;;;;;;9.67;7.43;;;11.30;99.90;11.30;99399.00;;;;4880946;28;110251;-66
2022/11/04 04:46:59;;;;;;;10.57;7.37;;;11.30;99.90;11.20;99417.00;;;;4879124;28;88049;-66
2022/11/04 04:49:33;;;;;;;8.83;6.50;;;11.30;99.90;11.20;99422.00;;;;4880492;28;117560;-65
2022/11/04 04:52:01;;;;;;;10.57;7.23;;;11.30;99.90;11.20;99424.00;;;;4877962;28;88308;-65
2022/11/04 04:54:27;;;;;;;11.37;6.43;;;11.20;99.90;11.20;99416.00;;;;4879059;28;104934;-64
2022/11/04 04:56:53;;;;;;;9.53;7.63;;;11.30;99.90;11.20;99421.00;;;;4878539;28;99895;-66
2022/11/04 04:59:18;;;;;;;9.40;7.20;;;11.20;99.90;11.20;99430.00;;;;4890275;28;110717;-66
2022/11/04 05:01:44;;;;;;;9.83;6.73;;;11.30;99.90;11.30;99431.00;;;;4877325;28;118254;-65
2022/11/04 05:04:10;;;;;;;10.33;7.63;;;11.30;99.90;11.30;99430.00;;;;4881343;28;111607;-65
2022/11/04 05:06:36;;;;;;;12.40;7.67;;;11.30;99.90;11.30;99437.00;;;;4876999;28;108415;-66
2022/11/04 05:09:01;;;;;;;12.33;7.40;;;11.40;99.90;11.40;99431.00;;;;4880137;28;88203;-66
2022/11/04 05:11:27;;;;;;;11.17;8.03;;;11.40;99.90;11.40;99431.00;;;;4876178;28;111419;-67
2022/11/04 05:13:53;;;;;;;12.33;7.80;;;11.40;99.90;11.50;99437.00;;;;4879284;28;110026;-66
2022/11/04 05:16:18;;;;;;;12.60;6.50;;;11.50;99.90;11.60;99437.00;;;;4882062;28;109258;-66
2022/11/04 05:18:44;;;;;;;11.23;7.03;;;11.60;99.90;11.60;99446.00;;;;4882753;28;116825;-66
2022/11/04 05:21:13;;;;;;;9.07;7.20;;;11.60;99.90;11.70;99449.00;;;;4877582;28;116980;-65
2022/11/04 05:23:39;;;;;;;9.87;7.23;;;11.60;99.90;11.70;99444.00;;;;4880962;28;88984;-66
2022/11/04 05:26:05;;;;;;;14.67;7.67;;;11.70;99.90;11.80;99441.00;;;;4880636;28;108802;-66
2022/11/04 05:28:31;;;;;;;8.60;5.80;;;11.80;99.90;11.80;99447.00;;;;4875587;28;118247;-66
2022/11/04 05:30:58;;;;;;;10.97;6.60;;;11.80;99.90;11.80;99447.00;;;;4877589;28;88103;-66
2022/11/04 05:33:24;;;;;;;9.80;5.70;;;11.80;99.90;11.90;99445.00;;;;4878380;28;102460;-65
2022/11/04 05:35:49;;;;;;;12.47;6.10;;;11.80;99.90;11.90;99452.00;;;;4879469;28;108064;-65
2022/11/04 05:38:15;;;;;;;10.90;6.67;;;11.90;99.90;11.90;99449.00;;;;4885227;28;88991;-66
2022/11/04 05:40:41;;;;;;;10.57;5.77;;;11.90;99.90;11.90;99446.00;;;;4881314;28;116793;-65
2022/11/04 05:43:06;;;;;;;10.27;6.60;;;11.90;99.90;12.00;99451.00;;;;4884043;28;87051;-65
2022/11/04 05:45:32;;;;;;;10.57;6.50;;;12.00;99.90;12.00;99454.00;;;;4884839;28;87792;-66
2022/11/04 05:48:03;;;;;;;7.97;6.47;;;12.00;99.90;12.00;99455.00;;;;4877340;28;116235;-66
2022/11/04 05:50:31;;;;;;;11.10;6.70;;;12.00;99.90;12.00;99465.00;;;;4875538;28;108801;-66
2022/11/04 05:52:59;;;;;;;10.47;6.33;;;12.00;99.90;12.10;99476.00;;;;4891661;28;87990;-66
2022/11/04 05:55:25;;;;;;;10.40;6.43;;;12.10;99.90;12.10;99467.00;;;;4875027;28;87690;-65
2022/11/04 05:57:51;;;;;;;14.17;7.33;;;12.10;99.90;12.10;99472.00;;;;4878416;28;108503;-65
2022/11/04 06:00:17;;;;;;;12.67;7.63;;;12.10;99.90;12.20;99470.00;;;;4882747;28;88951;-66
2022/11/04 06:02:42;;;;;;;6.53;5.77;;;12.10;99.90;12.20;99472.00;;;;4879035;28;90237;-65
2022/11/04 06:05:08;;;;;;;11.37;6.57;;;12.20;99.90;12.30;99484.00;;;;4878716;28;109313;-65
2022/11/04 06:07:34;;;;;;;8.73;7.00;;;12.20;99.90;12.30;99470.00;;;;4880860;28;88035;-64
2022/11/04 06:09:59;;;;;;;15.77;8.20;;;12.30;99.90;12.40;99479.00;;;;4886239;28;115572;-64
2022/11/04 06:12:25;;;;;;;13.03;7.07;;;12.40;99.90;12.40;99471.00;;;;4879918;28;89046;-65
2022/11/04 06:14:51;;;;;;;9.73;6.40;;;12.40;99.90;12.50;99477.00;;;;4882516;28;107416;-65
2022/11/04 06:17:19;;;;;;;10.83;6.97;;;12.40;99.90;12.50;99482.00;;;;4880772;28;116840;-65
2022/11/04 06:19:46;;;;;;;12.97;8.00;;;12.40;99.90;12.50;99491.00;;;;4878965;28;108098;-66
2022/11/04 06:22:14;;;;;;;12.80;7.47;;;12.50;99.90;12.50;99493.00;;;;4877542;28;88141;-66
2022/11/04 06:24:41;;;;;;;8.70;6.83;;;12.50;99.90;12.50;99485.00;;;;4878901;28;88098;-65
2022/11/04 06:27:07;;;;;;;8.33;5.90;;;12.50;99.90;12.50;99483.00;;;;4880745;28;88151;-66
2022/11/04 06:29:33;;;;;;;10.60;6.27;;;12.50;99.90;12.50;99486.00;;;;4879913;28;88485;-65
2022/11/04 06:31:59;;;;;;;9.20;5.73;;;12.50;99.90;12.50;99476.00;;;;4876938;28;87437;-65
2022/11/04 06:34:24;;;;;;;9.33;6.37;;;12.50;99.90;12.50;99477.00;;;;4876930;28;107997;-65
2022/11/04 06:36:50;;;;;;;8.53;5.03;;;12.50;99.90;12.50;99492.00;;;;4877131;28;116922;-66
2022/11/04 06:39:16;;;;;;;7.93;5.57;;;12.50;99.90;12.50;99498.00;;;;4876697;28;117571;-65
2022/11/04 06:41:41;;;;;;;9.40;5.73;;;12.50;99.90;12.50;99489.00;;;;4874994;28;109214;-66
2022/11/04 06:44:07;;;;;;;8.87;5.27;;;12.50;99.90;12.50;99495.00;;;;4874473;28;108818;-66
2022/11/04 06:46:37;;;;;;;5.77;4.97;;;12.50;99.90;12.50;99488.00;;;;4874841;28;117083;-66
2022/11/04 06:49:05;;;;;;;9.07;4.67;;;12.50;99.90;12.50;99495.00;;;;4879053;28;88080;-66
2022/11/04 06:51:32;;;;;;;6.40;4.63;;;12.50;99.90;12.40;99485.00;;;;4880318;28;87744;-65
2022/11/04 06:53:58;;;;;;;6.17;4.73;;;12.40;99.90;12.40;99487.00;;;;4882426;28;87878;-66
2022/11/04 06:56:24;;;;;;;5.80;4.70;;;12.40;99.90;12.40;99492.00;;;;4877127;28;99537;-65
2022/11/04 06:58:51;;;;;;;6.57;4.63;;;12.40;99.90;12.40;99490.00;;;;4878980;28;99086;-66
2022/11/04 07:01:18;;;;;;;6.27;4.50;;;12.40;99.90;12.40;99501.00;;;;4876083;28;88213;-66
2022/11/04 07:03:51;;;;;;;9.10;4.73;;;12.40;99.90;12.40;99515.00;;;;4878752;28;88804;-65
2022/11/04 07:06:18;;;;;;;10.43;5.23;;;12.40;99.90;12.40;99513.00;;;;4870519;28;88143;-64
2022/11/04 07:08:45;;;;;;;6.17;3.83;;;12.40;99.90;12.40;99499.00;;;;4878935;28;88401;-65
2022/11/04 07:11:11;;;;;;;7.07;3.80;;;12.40;99.90;12.40;99495.00;;;;4876921;28;95199;-67
2022/11/04 07:13:37;;;;;;;5.93;4.50;;;12.40;99.90;12.40;99505.00;;;;4877798;28;91045;-65
2022/11/04 07:16:08;;;;;;;5.13;3.87;;;12.40;99.90;12.40;99501.00;;;;4877589;28;88648;-65
2022/11/04 07:18:33;;;;;;;4.07;3.33;;;12.40;99.90;12.40;99500.00;;;;4877424;28;89891;-65
2022/11/04 07:21:00;;;;;;;8.70;4.03;;;12.40;99.90;12.40;99500.00;;;;4878255;28;88316;-67
2022/11/04 07:23:26;;;;;;;8.83;5.60;;;12.40;99.90;12.50;99482.00;;;;4878455;28;87982;-66
2022/11/04 07:25:53;;;;;;;6.50;4.27;;;12.50;99.90;12.50;99483.00;;;;4879864;28;89301;-66
2022/11/04 07:28:19;;;;;;;8.00;5.07;;;12.50;99.90;12.60;99483.00;;;;4879321;28;89131;-66
2022/11/04 07:30:45;;;;;;;4.23;3.23;;;12.50;99.90;12.60;99478.00;;;;4891850;28;88356;-66
2022/11/04 07:33:11;;;;;;;4.93;4.43;;;12.50;99.90;12.70;99469.00;;;;4884393;28;87920;-66
2022/11/04 07:35:37;;;;;;;6.33;3.67;;;12.60;99.90;12.70;99472.00;;;;4881371;28;116482;-65
2022/11/04 07:38:03;;;;;;;5.73;3.97;;;12.50;99.90;12.80;99483.00;;;;4882145;28;88931;-66
2022/11/04 07:40:33;;;;;;;6.10;4.17;;;12.70;99.90;12.80;99495.00;;;;4879675;28;87983;-64
2022/11/04 07:42:59;;;;;;;8.73;4.20;;;12.60;99.90;12.80;99499.00;;;;4882186;28;88053;-65
2022/11/04 07:45:26;;;;;;;4.43;4.03;;;12.80;99.90;12.90;99494.00;;;;4882557;28;106509;-65
2022/11/04 07:47:51;;;;;;;5.17;4.00;;;12.90;99.90;12.90;99505.00;;;;4885966;28;87686;-65
2022/11/04 07:50:17;;;;;;;5.30;3.83;;;12.90;99.90;13.00;99508.00;;;;4879271;28;110323;-65
2022/11/04 07:52:43;;;;;;;3.90;3.40;;;12.90;99.90;13.00;99514.00;;;;4877670;28;89471;-66
2022/11/04 07:55:09;;;;;;;3.73;3.23;;;12.90;99.90;13.00;99513.00;;;;4877026;28;118384;-66
2022/11/04 07:57:35;;;;;;;5.50;2.70;;;13.00;99.90;13.00;99509.00;;;;4879216;28;87816;-66
2022/11/04 08:00:05;;;;;;;8.27;3.63;;;13.00;99.90;13.10;99514.00;;;;4878547;28;88025;-66
2022/11/04 08:02:31;;;;;;;3.90;2.80;;;13.10;99.90;13.10;99505.00;;;;4877829;28;88239;-66
2022/11/04 08:04:56;;;;;;;5.13;2.67;;;13.10;99.90;13.10;99495.00;;;;4877204;28;118492;-66
2022/11/04 08:07:22;;;;;;;6.57;3.10;;;13.10;99.90;13.20;99488.00;;;;4878230;28;96651;-66
2022/11/04 08:09:48;;;;;;;4.60;2.47;;;13.20;99.90;13.30;99497.00;;;;4879382;28;87051;-67
2022/11/04 08:12:13;;;;;;;7.93;4.57;;;13.20;99.90;13.30;99511.00;;;;4874966;28;109157;-67
2022/11/04 08:14:39;;;;;;;6.67;4.70;;;13.30;99.90;13.30;99526.00;;;;4876402;28;117869;-66
2022/11/04 08:17:05;;;;;;;4.90;2.93;;;13.30;99.90;13.30;99523.00;;;;4872436;28;117842;-66
2022/11/04 08:19:30;;;;;;;5.80;2.93;;;13.30;99.90;13.30;99525.00;;;;4873200;28;109372;-66
2022/11/04 08:21:56;;;;;;;3.93;2.67;;;13.40;99.90;13.30;99531.00;;;;4875472;28;108079;-67
2022/11/04 08:24:22;;;;;;;3.40;2.57;;;13.30;99.90;13.30;99531.00;;;;4871914;28;116632;-67
2022/11/04 08:26:47;;;;;;;2.73;2.47;;;13.30;99.90;13.20;99533.00;;;;4877696;28;118175;-66
2022/11/04 08:29:13;;;;;;;3.00;2.50;;;13.20;99.90;13.20;99519.00;;;;4876360;28;88286;-66
2022/11/04 08:31:39;;;;;;;3.30;2.90;;;13.20;99.90;13.20;99533.00;;;;4872580;28;108400;-66
2022/11/04 08:34:07;;;;;;;3.93;2.87;;;13.20;99.90;13.20;99543.00;;;;4875508;28;87322;-66
2022/11/04 08:36:36;;;;;;;3.73;2.93;;;13.20;99.90;13.20;99529.00;;;;4876966;28;87968;-67
2022/11/04 08:39:04;;;;;;;2.87;1.97;;;13.20;99.90;13.20;99514.00;;;;4877310;28;87959;-66
2022/11/04 08:41:31;;;;;;;3.60;2.70;;;13.20;99.90;13.20;99515.00;;;;4874412;28;96544;-66
2022/11/04 08:43:59;;;;;;;3.57;3.27;;;13.20;99.90;13.30;99528.00;;;;4880268;28;88670;-66
2022/11/04 08:46:28;;;;;;;3.23;2.30;;;13.20;99.90;13.30;99522.00;;;;4875521;28;88058;-67
2022/11/04 08:48:54;;;;;;;8.33;3.77;;;13.30;99.90;13.30;99527.00;;;;4877337;28;87786;-67
2022/11/04 08:51:24;;;;;;;3.00;2.33;;;13.30;99.90;13.30;99524.00;;;;4875194;28;109023;-67
2022/11/04 08:53:49;;;;;;;4.03;3.40;;;13.30;99.90;13.30;99523.00;;;;4877791;28;88104;-65
2022/11/04 08:56:21;;;;;;;5.57;3.20;;;13.30;99.90;13.30;99515.00;;;;4873965;28;87746;-65
2022/11/04 08:58:47;;;;;;;2.57;2.13;;;13.30;99.90;13.30;99514.00;;;;4876814;28;87173;-65
2022/11/04 09:01:14;;;;;;;5.30;2.80;;;13.30;99.90;13.30;99502.00;;;;4874664;28;87959;-65
2022/11/04 09:03:41;;;;;;;3.73;3.00;;;13.20;99.90;13.30;99498.00;;;;4888661;28;89113;-66
2022/11/04 09:06:10;;;;;;;2.93;2.20;;;13.30;99.90;13.30;99489.00;;;;4876506;28;88936;-65
2022/11/04 09:08:39;;;;;;;4.70;2.00;;;13.30;99.90;13.40;99493.00;;;;4872222;28;98197;-66
2022/11/04 09:11:07;;;;;;;2.50;2.27;;;13.30;99.90;13.40;99496.00;;;;4874289;28;87877;-65
2022/11/04 09:13:33;;;;;;;4.83;2.80;;;13.40;99.90;13.40;99494.00;;;;4874460;28;88723;-66
2022/11/04 09:15:59;;;;;;;5.77;2.93;;;13.40;99.90;13.40;99506.00;;;;4872134;28;116252;-66
2022/11/04 09:18:24;;;;;;;3.40;2.43;;;13.40;99.90;13.40;99499.00;;;;4875082;28;95067;-65
2022/11/04 09:20:50;;;;;;;5.40;3.33;;;13.40;99.90;13.40;99489.00;;;;4875607;28;109068;-66
2022/11/04 09:23:16;;;;;;;5.50;3.47;;;13.40;99.90;13.40;99488.00;;;;4874556;28;117849;-67
2022/11/04 09:25:41;;;;;;;3.23;2.87;;;13.40;99.90;13.40;99488.00;;;;4874086;28;87868;-65
2022/11/04 09:28:07;;;;;;;3.70;2.83;;;13.40;99.90;13.40;99475.00;;;;4879591;28;111051;-65
2022/11/04 09:30:33;;;;;;;4.47;2.10;;;13.40;99.90;13.50;99493.00;;;;4881886;28;88961;-64
2022/11/04 09:32:59;;;;;;;2.97;2.60;;;13.40;99.90;13.50;99488.00;;;;4875816;28;116572;-66
2022/11/04 09:35:26;;;;;;;3.50;2.20;;;13.40;99.90;13.50;99497.00;;;;4874509;28;88226;-65
2022/11/04 09:37:53;;;;;;;2.53;1.83;;;13.40;99.90;13.40;99498.00;;;;4875328;28;87879;-64
2022/11/04 09:40:23;;;;;;;1.57;1.47;;;13.40;99.90;13.40;99497.00;;;;4887921;28;88034;-65
2022/11/04 09:43:45;;;;;;;1.50;1.40;;;13.40;99.90;13.40;99485.00;;;;4873106;28;93544;-65
2022/11/04 09:46:13;;;;;;;2.50;1.23;;;13.40;99.90;13.40;99484.00;;;;4876904;28;87889;-65
2022/11/04 09:48:46;;;;;;;2.07;1.70;;;13.40;99.90;13.40;99481.00;;;;4894041;28;110045;-66
2022/11/04 09:51:16;;;;;;;1.73;1.40;;;13.40;99.90;13.40;99482.00;;;;4874374;28;87877;-65
2022/11/04 09:53:48;;;;;;;8.00;2.10;;;13.40;99.90;13.40;99480.00;;;;4877650;28;88863;-66
2022/11/04 09:56:26;;;;;;;1.83;1.67;;;13.40;99.90;13.40;99484.00;;;;4874358;28;89678;-66
2022/11/04 09:58:52;;;;;;;2.93;1.83;;;13.40;99.90;13.40;99485.00;;;;4875579;28;101113;-66
2022/11/04 10:01:18;;;;;;;2.97;1.33;;;13.30;99.90;13.40;99487.00;;;;4878134;28;87722;-65
2022/11/04 10:04:12;;;;;;;1.73;1.60;;;13.30;99.90;13.30;99499.00;;;;4879101;28;89169;-67
2022/11/04 10:07:00;;;;;;;2.30;1.43;;;13.30;99.90;13.30;99514.00;;;;4875667;28;88458;-66
2022/11/04 10:09:50;;;;;;;2.97;1.77;;;13.30;99.90;13.20;99517.00;;;;4877350;28;88090;-66
2022/11/04 10:13:02;;;;;;;1.70;1.60;;;13.20;99.90;13.00;99502.00;;;;4879969;28;88332;-67
2022/11/04 10:15:51;;;;;;;1.83;1.63;;;13.10;99.90;12.90;99510.00;;;;4864611;28;88127;-67
2022/11/04 10:18:39;;;;;;;3.13;1.50;;;13.00;99.90;12.80;99523.00;;;;4877836;28;88176;-66
2022/11/04 10:21:40;;;;;;;1.70;1.60;;;12.90;99.90;12.70;99526.00;;;;4877830;28;88018;-66
2022/11/04 10:24:35;;;;;;;7.00;1.87;;;12.80;99.90;12.60;99541.00;;;;4881779;28;88758;-67
2022/11/04 10:27:04;;;;;;;5.70;2.50;;;12.70;99.90;12.50;99543.00;;;;4879432;28;88708;-67
2022/11/04 10:29:43;;;;;;;3.10;2.00;;;12.60;99.90;12.40;99541.00;;;;4876398;28;88857;-66
2022/11/04 10:32:24;;;;;;;4.33;2.73;;;12.50;99.90;12.30;99549.00;;;;4871652;28;87736;-67
2022/11/04 10:34:58;;;;;;;3.47;1.70;;;12.40;99.90;12.20;99539.00;;;;4873682;28;101305;-68
2022/11/04 10:37:25;;;;;;;2.53;1.77;;;12.30;99.90;12.20;99546.00;;;;4875816;28;88011;-67
2022/11/04 10:40:00;;;;;;;1.77;1.57;;;12.30;99.90;12.20;99557.00;;;;4872033;28;117349;-66
2022/11/04 10:42:26;;;;;;;2.23;1.87;;;12.20;99.90;12.10;99555.00;;;;4874595;28;87177;-68
2022/11/04 10:44:52;;;;;;;3.87;1.97;;;12.20;99.90;12.00;99563.00;;;;4879028;28;107558;-68
2022/11/04 10:47:24;;;;;;;2.47;2.00;;;12.30;99.90;11.90;99565.00;;;;4877837;28;88248;-70
2022/11/04 10:50:11;;;;;;;2.73;1.97;;;12.00;99.90;11.80;99566.00;;;;4874794;28;88915;-69
2022/11/04 10:52:38;;;;;;;3.33;2.07;;;11.90;99.90;11.70;99568.00;;;;4877606;28;87699;-69
2022/11/04 10:55:18;;;;;;;3.37;2.07;;;11.80;99.90;11.70;99565.00;;;;4874930;28;101776;-70
2022/11/04 10:57:44;;;;;;;4.60;2.37;;;11.70;99.90;11.60;99567.00;;;;4889293;28;88268;-70
2022/11/04 11:00:39;;;;;;;2.17;1.67;;;11.60;99.90;11.50;99575.00;;;;4873141;28;116356;-70
2022/11/04 11:03:33;;;;;;;2.90;2.17;;;11.60;99.90;11.40;99571.00;;;;4873059;28;88111;-68
2022/11/04 11:06:32;;;;;;;4.03;2.67;;;11.50;99.90;11.40;99573.00;;;;4876452;28;88010;-68
2022/11/04 11:09:12;;;;;;;4.17;2.67;;;11.40;99.90;11.40;99571.00;;;;4877986;28;87407;-69
2022/11/04 11:11:41;;;;;;;2.70;2.27;;;11.40;99.90;11.40;99563.00;;;;4871495;28;87925;-69
2022/11/04 11:14:28;;;;;;;2.43;1.93;;;11.40;99.90;11.40;99549.00;;;;4877357;28;87978;-69
2022/11/04 11:17:19;;;;;;;4.17;2.73;;;11.40;99.90;11.40;99564.00;;;;4871409;28;88999;-70
2022/11/04 11:19:57;;;;;;;3.03;2.30;;;11.40;99.90;11.40;99565.00;;;;4873692;28;88021;-70
2022/11/04 11:22:43;;;;;;;2.37;1.97;;;11.40;99.90;11.40;99556.00;;;;4874591;28;87813;-70
2022/11/04 11:25:29;;;;;;;3.83;2.97;;;11.40;99.90;11.40;99578.00;;;;4874771;28;87946;-70
2022/11/04 11:28:04;;;;;;;2.27;1.90;;;11.50;99.90;11.40;99576.00;;;;4872828;28;88012;-69
2022/11/04 11:30:45;;;;;;;3.30;1.77;;;11.40;99.90;11.30;99577.00;;;;4873470;28;87975;-70
2022/11/04 11:33:37;;;;;;;2.53;1.90;;;11.30;99.90;11.20;99586.00;;;;4874631;28;88528;-70
2022/11/04 11:36:17;;;;;;;3.57;2.13;;;11.30;99.90;11.20;99586.00;;;;4824220;28;1105385;-70
2022/11/04 11:39:20;;;;;;;3.23;2.30;;;11.20;99.90;11.10;99574.00;;;;4873976;28;96217;-71